sensor_id;sensor_type;location;lat;lon;timestamp;pressure;altitude;pressure_sealevel;temperature
37536;BMP180;23379;51.554;6.736;2024-03-02T00:02:06;99566.00;;;8.30
37536;BMP180;23379;51.554;6.736;2024-03-02T00:04:31;99536.00;;;8.20
37536;BMP180;23379;51.554;6.736;2024-03-02T00:06:57;99570.00;;;8.20
37536;BMP180;23379;51.554;6.736;2024-03-02T00:09:22;99550.00;;;8.20
37536;BMP180;23379;51.554;6.736;2024-03-02T00:11:48;99528.00;;;8.20
37536;BMP180;23379;51.554;6.736;2024-03-02T00:14:13;99536.00;;;8.20
37536;BMP180;23379;51.554;6.736;2024-03-02T00:16:38;99541.00;;;8.10
37536;BMP180;23379;51.554;6.736;2024-03-02T00:19:05;99544.00;;;8.30
37536;BMP180;23379;51.554;6.736;2024-03-02T00:21:32;99530.00;;;8.40
37536;BMP180;23379;51.554;6.736;2024-03-02T00:24:17;99508.00;;;8.50
37536;BMP180;23379;51.554;6.736;2024-03-02T00:26:47;99509.00;;;8.50
37536;BMP180;23379;51.554;6.736;2024-03-02T00:29:15;99503.00;;;8.50
37536;BMP180;23379;51.554;6.736;2024-03-02T00:31:41;99500.00;;;8.60
37536;BMP180;23379;51.554;6.736;2024-03-02T00:34:10;99514.00;;;8.70
37536;BMP180;23379;51.554;6.736;2024-03-02T00:36:38;99536.00;;;8.70
37536;BMP180;23379;51.554;6.736;2024-03-02T00:39:04;99528.00;;;8.80
37536;BMP180;23379;51.554;6.736;2024-03-02T00:41:33;99515.00;;;8.70
37536;BMP180;23379;51.554;6.736;2024-03-02T00:44:10;99516.00;;;9.00
37536;BMP180;23379;51.554;6.736;2024-03-02T00:46:39;99522.00;;;8.90
37536;BMP180;23379;51.554;6.736;2024-03-02T00:51:36;99527.00;;;9.00
37536;BMP180;23379;51.554;6.736;2024-03-02T00:54:03;99513.00;;;8.90
37536;BMP180;23379;51.554;6.736;2024-03-02T00:56:30;99519.00;;;9.10
37536;BMP180;23379;51.554;6.736;2024-03-02T00:58:56;99529.00;;;9.00
37536;BMP180;23379;51.554;6.736;2024-03-02T01:01:21;99509.00;;;8.90
37536;BMP180;23379;51.554;6.736;2024-03-02T01:03:48;99522.00;;;9.00
37536;BMP180;23379;51.554;6.736;2024-03-02T01:06:17;99534.00;;;9.00
37536;BMP180;23379;51.554;6.736;2024-03-02T01:08:42;99515.00;;;9.10
37536;BMP180;23379;51.554;6.736;2024-03-02T01:11:08;99517.00;;;9.00
37536;BMP180;23379;51.554;6.736;2024-03-02T01:13:33;99505.00;;;9.00
37536;BMP180;23379;51.554;6.736;2024-03-02T01:15:59;99510.00;;;9.00
37536;BMP180;23379;51.554;6.736;2024-03-02T01:18:24;99522.00;;;9.00
37536;BMP180;23379;51.554;6.736;2024-03-02T01:20:50;99494.00;;;9.00
37536;BMP180;23379;51.554;6.736;2024-03-02T01:23:21;99508.00;;;9.10
37536;BMP180;23379;51.554;6.736;2024-03-02T01:25:47;99526.00;;;9.10
37536;BMP180;23379;51.554;6.736;2024-03-02T01:28:13;99488.00;;;9.10
37536;BMP180;23379;51.554;6.736;2024-03-02T01:30:39;99539.00;;;9.00
37536;BMP180;23379;51.554;6.736;2024-03-02T01:33:04;99522.00;;;9.10
37536;BMP180;23379;51.554;6.736;2024-03-02T01:35:31;99512.00;;;9.00
37536;BMP180;23379;51.554;6.736;2024-03-02T01:37:56;99515.00;;;9.10
37536;BMP180;23379;51.554;6.736;2024-03-02T01:40:22;99513.00;;;9.00
37536;BMP180;23379;51.554;6.736;2024-03-02T01:42:51;99522.00;;;9.10
37536;BMP180;23379;51.554;6.736;2024-03-02T01:45:17;99514.00;;;9.00
37536;BMP180;23379;51.554;6.736;2024-03-02T01:47:42;99507.00;;;9.00
37536;BMP180;23379;51.554;6.736;2024-03-02T01:50:08;99523.00;;;8.90
37536;BMP180;23379;51.554;6.736;2024-03-02T01:52:34;99527.00;;;8.80
37536;BMP180;23379;51.554;6.736;2024-03-02T01:54:59;99530.00;;;9.00
37536;BMP180;23379;51.554;6.736;2024-03-02T01:57:24;99500.00;;;8.90
37536;BMP180;23379;51.554;6.736;2024-03-02T01:59:50;99505.00;;;9.00
37536;BMP180;23379;51.554;6.736;2024-03-02T02:02:16;99530.00;;;9.10
37536;BMP180;23379;51.554;6.736;2024-03-02T02:04:41;99502.00;;;9.10
37536;BMP180;23379;51.554;6.736;2024-03-02T02:07:07;99501.00;;;9.10
37536;BMP180;23379;51.554;6.736;2024-03-02T02:09:32;99493.00;;;9.10
37536;BMP180;23379;51.554;6.736;2024-03-02T02:11:58;99504.00;;;9.20
37536;BMP180;23379;51.554;6.736;2024-03-02T02:14:23;99508.00;;;9.10
37536;BMP180;23379;51.554;6.736;2024-03-02T02:16:49;99495.00;;;9.20
37536;BMP180;23379;51.554;6.736;2024-03-02T02:19:14;99513.00;;;9.10
37536;BMP180;23379;51.554;6.736;2024-03-02T02:21:42;99498.00;;;9.10
37536;BMP180;23379;51.554;6.736;2024-03-02T02:24:08;99516.00;;;9.20
37536;BMP180;23379;51.554;6.736;2024-03-02T02:26:33;99516.00;;;9.30
37536;BMP180;23379;51.554;6.736;2024-03-02T02:28:59;99509.00;;;9.10
37536;BMP180;23379;51.554;6.736;2024-03-02T02:31:24;99503.00;;;9.30
37536;BMP180;23379;51.554;6.736;2024-03-02T02:33:50;99503.00;;;9.10
37536;BMP180;23379;51.554;6.736;2024-03-02T02:36:15;99513.00;;;9.40
37536;BMP180;23379;51.554;6.736;2024-03-02T02:38:44;99515.00;;;9.40
37536;BMP180;23379;51.554;6.736;2024-03-02T02:41:12;99501.00;;;9.30
37536;BMP180;23379;51.554;6.736;2024-03-02T02:43:38;99510.00;;;9.30
37536;BMP180;23379;51.554;6.736;2024-03-02T02:46:05;99481.00;;;9.30
37536;BMP180;23379;51.554;6.736;2024-03-02T02:48:30;99480.00;;;9.50
37536;BMP180;23379;51.554;6.736;2024-03-02T02:50:55;99501.00;;;9.40
37536;BMP180;23379;51.554;6.736;2024-03-02T02:53:21;99512.00;;;9.50
37536;BMP180;23379;51.554;6.736;2024-03-02T02:55:46;99495.00;;;9.40
37536;BMP180;23379;51.554;6.736;2024-03-02T02:58:12;99514.00;;;9.30
37536;BMP180;23379;51.554;6.736;2024-03-02T03:00:38;99485.00;;;9.40
37536;BMP180;23379;51.554;6.736;2024-03-02T03:03:04;99499.00;;;9.30
37536;BMP180;23379;51.554;6.736;2024-03-02T03:05:29;99515.00;;;9.30
37536;BMP180;23379;51.554;6.736;2024-03-02T03:07:54;99499.00;;;9.40
37536;BMP180;23379;51.554;6.736;2024-03-02T03:10:20;99480.00;;;9.60
37536;BMP180;23379;51.554;6.736;2024-03-02T03:12:47;99520.00;;;9.30
37536;BMP180;23379;51.554;6.736;2024-03-02T03:15:13;99518.00;;;9.40
37536;BMP180;23379;51.554;6.736;2024-03-02T03:17:38;99522.00;;;9.30
37536;BMP180;23379;51.554;6.736;2024-03-02T03:20:04;99525.00;;;9.30
37536;BMP180;23379;51.554;6.736;2024-03-02T03:22:31;99495.00;;;9.40
37536;BMP180;23379;51.554;6.736;2024-03-02T03:25:00;99503.00;;;9.30
37536;BMP180;23379;51.554;6.736;2024-03-02T03:27:25;99502.00;;;9.20
37536;BMP180;23379;51.554;6.736;2024-03-02T03:29:51;99512.00;;;9.20
37536;BMP180;23379;51.554;6.736;2024-03-02T03:32:17;99518.00;;;9.40
37536;BMP180;23379;51.554;6.736;2024-03-02T03:34:42;99510.00;;;9.60
37536;BMP180;23379;51.554;6.736;2024-03-02T03:37:08;99524.00;;;9.30
37536;BMP180;23379;51.554;6.736;2024-03-02T03:39:34;99523.00;;;9.20
37536;BMP180;23379;51.554;6.736;2024-03-02T03:42:00;99540.00;;;9.20
37536;BMP180;23379;51.554;6.736;2024-03-02T03:44:26;99524.00;;;9.20
37536;BMP180;23379;51.554;6.736;2024-03-02T03:46:51;99538.00;;;9.40
37536;BMP180;23379;51.554;6.736;2024-03-02T03:49:16;99518.00;;;9.40
37536;BMP180;23379;51.554;6.736;2024-03-02T03:51:42;99494.00;;;9.30
37536;BMP180;23379;51.554;6.736;2024-03-02T03:54:07;99521.00;;;9.20
37536;BMP180;23379;51.554;6.736;2024-03-02T03:56:33;99537.00;;;9.20
37536;BMP180;23379;51.554;6.736;2024-03-02T03:58:58;99535.00;;;9.10
37536;BMP180;23379;51.554;6.736;2024-03-02T04:01:25;99537.00;;;9.10
37536;BMP180;23379;51.554;6.736;2024-03-02T04:03:50;99519.00;;;9.20
37536;BMP180;23379;51.554;6.736;2024-03-02T04:06:15;99536.00;;;9.20
37536;BMP180;23379;51.554;6.736;2024-03-02T04:08:42;99547.00;;;9.20
37536;BMP180;23379;51.554;6.736;2024-03-02T04:11:08;99543.00;;;8.90
37536;BMP180;23379;51.554;6.736;2024-03-02T04:13:33;99531.00;;;9.10
37536;BMP180;23379;51.554;6.736;2024-03-02T04:15:59;99524.00;;;8.90
37536;BMP180;23379;51.554;6.736;2024-03-02T04:18:25;99536.00;;;9.10
37536;BMP180;23379;51.554;6.736;2024-03-02T04:20:50;99529.00;;;9.20
37536;BMP180;23379;51.554;6.736;2024-03-02T04:23:15;99536.00;;;8.90
37536;BMP180;23379;51.554;6.736;2024-03-02T04:25:41;99528.00;;;9.00
37536;BMP180;23379;51.554;6.736;2024-03-02T04:28:06;99509.00;;;8.80
37536;BMP180;23379;51.554;6.736;2024-03-02T04:30:31;99514.00;;;8.80
37536;BMP180;23379;51.554;6.736;2024-03-02T04:32:57;99522.00;;;8.70
37536;BMP180;23379;51.554;6.736;2024-03-02T04:35:22;99526.00;;;9.00
37536;BMP180;23379;51.554;6.736;2024-03-02T04:37:48;99529.00;;;9.20
37536;BMP180;23379;51.554;6.736;2024-03-02T04:40:13;99541.00;;;9.30
37536;BMP180;23379;51.554;6.736;2024-03-02T04:42:38;99540.00;;;8.90
37536;BMP180;23379;51.554;6.736;2024-03-02T04:45:04;99534.00;;;8.90
37536;BMP180;23379;51.554;6.736;2024-03-02T04:47:30;99550.00;;;8.90
37536;BMP180;23379;51.554;6.736;2024-03-02T04:49:55;99544.00;;;9.00
37536;BMP180;23379;51.554;6.736;2024-03-02T04:52:20;99541.00;;;8.80
37536;BMP180;23379;51.554;6.736;2024-03-02T04:54:45;99535.00;;;8.90
37536;BMP180;23379;51.554;6.736;2024-03-02T04:57:29;99546.00;;;9.20
37536;BMP180;23379;51.554;6.736;2024-03-02T04:59:55;99561.00;;;8.80
37536;BMP180;23379;51.554;6.736;2024-03-02T05:02:20;99551.00;;;9.20
37536;BMP180;23379;51.554;6.736;2024-03-02T05:04:45;99554.00;;;9.10
37536;BMP180;23379;51.554;6.736;2024-03-02T05:07:11;99554.00;;;9.10
37536;BMP180;23379;51.554;6.736;2024-03-02T05:09:36;99541.00;;;9.10
37536;BMP180;23379;51.554;6.736;2024-03-02T05:12:02;99551.00;;;9.10
37536;BMP180;23379;51.554;6.736;2024-03-02T05:14:46;99553.00;;;8.80
37536;BMP180;23379;51.554;6.736;2024-03-02T05:17:11;99557.00;;;8.50
37536;BMP180;23379;51.554;6.736;2024-03-02T05:19:36;99587.00;;;8.60
37536;BMP180;23379;51.554;6.736;2024-03-02T05:22:02;99555.00;;;8.50
37536;BMP180;23379;51.554;6.736;2024-03-02T05:24:28;99563.00;;;8.50
37536;BMP180;23379;51.554;6.736;2024-03-02T05:26:54;99543.00;;;8.50
37536;BMP180;23379;51.554;6.736;2024-03-02T05:29:19;99550.00;;;8.20
37536;BMP180;23379;51.554;6.736;2024-03-02T05:31:44;99552.00;;;8.20
37536;BMP180;23379;51.554;6.736;2024-03-02T05:34:10;99569.00;;;8.10
37536;BMP180;23379;51.554;6.736;2024-03-02T05:36:35;99556.00;;;7.90
37536;BMP180;23379;51.554;6.736;2024-03-02T05:39:01;99561.00;;;7.80
37536;BMP180;23379;51.554;6.736;2024-03-02T05:41:29;99561.00;;;7.70
37536;BMP180;23379;51.554;6.736;2024-03-02T05:43:55;99563.00;;;7.80
37536;BMP180;23379;51.554;6.736;2024-03-02T05:46:20;99560.00;;;7.60
37536;BMP180;23379;51.554;6.736;2024-03-02T05:48:45;99550.00;;;7.70
37536;BMP180;23379;51.554;6.736;2024-03-02T05:51:11;99546.00;;;7.60
37536;BMP180;23379;51.554;6.736;2024-03-02T05:53:36;99565.00;;;7.70
37536;BMP180;23379;51.554;6.736;2024-03-02T05:56:04;99538.00;;;7.70
37536;BMP180;23379;51.554;6.736;2024-03-02T05:58:29;99554.00;;;7.50
37536;BMP180;23379;51.554;6.736;2024-03-02T06:01:18;99575.00;;;7.80
37536;BMP180;23379;51.554;6.736;2024-03-02T06:03:43;99567.00;;;7.70
37536;BMP180;23379;51.554;6.736;2024-03-02T06:06:09;99572.00;;;7.70
37536;BMP180;23379;51.554;6.736;2024-03-02T06:08:35;99555.00;;;7.70
37536;BMP180;23379;51.554;6.736;2024-03-02T06:11:00;99581.00;;;7.70
37536;BMP180;23379;51.554;6.736;2024-03-02T06:13:26;99588.00;;;7.60
37536;BMP180;23379;51.554;6.736;2024-03-02T06:15:51;99585.00;;;7.70
37536;BMP180;23379;51.554;6.736;2024-03-02T06:18:17;99585.00;;;7.50
37536;BMP180;23379;51.554;6.736;2024-03-02T06:20:42;99578.00;;;7.50
37536;BMP180;23379;51.554;6.736;2024-03-02T06:23:08;99575.00;;;7.50
37536;BMP180;23379;51.554;6.736;2024-03-02T06:25:33;99583.00;;;7.40
37536;BMP180;23379;51.554;6.736;2024-03-02T06:27:58;99579.00;;;7.40
37536;BMP180;23379;51.554;6.736;2024-03-02T06:30:24;99574.00;;;7.50
37536;BMP180;23379;51.554;6.736;2024-03-02T06:32:49;99586.00;;;7.50
37536;BMP180;23379;51.554;6.736;2024-03-02T06:35:15;99587.00;;;7.60
37536;BMP180;23379;51.554;6.736;2024-03-02T06:37:40;99557.00;;;7.70
37536;BMP180;23379;51.554;6.736;2024-03-02T06:40:06;99572.00;;;7.70
37536;BMP180;23379;51.554;6.736;2024-03-02T06:42:35;99582.00;;;7.60
37536;BMP180;23379;51.554;6.736;2024-03-02T06:45:02;99594.00;;;7.50
37536;BMP180;23379;51.554;6.736;2024-03-02T06:47:27;99619.00;;;7.60
37536;BMP180;23379;51.554;6.736;2024-03-02T06:49:53;99620.00;;;7.70
37536;BMP180;23379;51.554;6.736;2024-03-02T06:52:18;99621.00;;;7.70
37536;BMP180;23379;51.554;6.736;2024-03-02T06:54:44;99630.00;;;7.90
37536;BMP180;23379;51.554;6.736;2024-03-02T06:57:09;99603.00;;;7.90
37536;BMP180;23379;51.554;6.736;2024-03-02T06:59:35;99617.00;;;8.00
37536;BMP180;23379;51.554;6.736;2024-03-02T07:02:00;99623.00;;;8.00
37536;BMP180;23379;51.554;6.736;2024-03-02T07:04:26;99634.00;;;8.20
37536;BMP180;23379;51.554;6.736;2024-03-02T07:06:52;99628.00;;;8.20
37536;BMP180;23379;51.554;6.736;2024-03-02T07:09:17;99624.00;;;8.10
37536;BMP180;23379;51.554;6.736;2024-03-02T07:11:43;99642.00;;;8.30
37536;BMP180;23379;51.554;6.736;2024-03-02T07:14:08;99641.00;;;8.30
37536;BMP180;23379;51.554;6.736;2024-03-02T07:16:37;99624.00;;;8.60
37536;BMP180;23379;51.554;6.736;2024-03-02T07:19:03;99624.00;;;8.80
37536;BMP180;23379;51.554;6.736;2024-03-02T07:21:29;99647.00;;;9.00
37536;BMP180;23379;51.554;6.736;2024-03-02T07:23:54;99653.00;;;9.00
37536;BMP180;23379;51.554;6.736;2024-03-02T07:26:19;99650.00;;;9.30
37536;BMP180;23379;51.554;6.736;2024-03-02T07:28:48;99653.00;;;9.50
37536;BMP180;23379;51.554;6.736;2024-03-02T07:31:14;99644.00;;;9.60
37536;BMP180;23379;51.554;6.736;2024-03-02T07:33:40;99648.00;;;9.70
37536;BMP180;23379;51.554;6.736;2024-03-02T07:36:07;99643.00;;;9.70
37536;BMP180;23379;51.554;6.736;2024-03-02T07:38:32;99657.00;;;9.90
37536;BMP180;23379;51.554;6.736;2024-03-02T07:40:59;99651.00;;;10.20
37536;BMP180;23379;51.554;6.736;2024-03-02T07:43:25;99651.00;;;9.90
37536;BMP180;23379;51.554;6.736;2024-03-02T07:45:50;99657.00;;;10.10
37536;BMP180;23379;51.554;6.736;2024-03-02T07:48:16;99627.00;;;10.10
37536;BMP180;23379;51.554;6.736;2024-03-02T07:50:42;99651.00;;;10.10
37536;BMP180;23379;51.554;6.736;2024-03-02T07:53:08;99660.00;;;10.00
37536;BMP180;23379;51.554;6.736;2024-03-02T07:55:34;99662.00;;;10.20
37536;BMP180;23379;51.554;6.736;2024-03-02T07:58:00;99675.00;;;9.90
37536;BMP180;23379;51.554;6.736;2024-03-02T08:00:26;99669.00;;;9.90
37536;BMP180;23379;51.554;6.736;2024-03-02T08:02:52;99665.00;;;9.80
37536;BMP180;23379;51.554;6.736;2024-03-02T08:05:18;99685.00;;;9.70
37536;BMP180;23379;51.554;6.736;2024-03-02T08:07:46;99666.00;;;9.50
37536;BMP180;23379;51.554;6.736;2024-03-02T08:10:12;99687.00;;;9.60
37536;BMP180;23379;51.554;6.736;2024-03-02T08:12:38;99685.00;;;10.60
37536;BMP180;23379;51.554;6.736;2024-03-02T08:15:04;99698.00;;;11.30
37536;BMP180;23379;51.554;6.736;2024-03-02T08:17:30;99698.00;;;12.30
37536;BMP180;23379;51.554;6.736;2024-03-02T08:19:55;99692.00;;;13.30
37536;BMP180;23379;51.554;6.736;2024-03-02T08:22:21;99705.00;;;14.50
37536;BMP180;23379;51.554;6.736;2024-03-02T08:24:47;99691.00;;;13.70
37536;BMP180;23379;51.554;6.736;2024-03-02T08:27:12;99679.00;;;13.10
37536;BMP180;23379;51.554;6.736;2024-03-02T08:29:38;99703.00;;;12.50
37536;BMP180;23379;51.554;6.736;2024-03-02T08:32:05;99693.00;;;11.30
37536;BMP180;23379;51.554;6.736;2024-03-02T08:34:31;99699.00;;;11.10
37536;BMP180;23379;51.554;6.736;2024-03-02T08:36:56;99703.00;;;11.30
37536;BMP180;23379;51.554;6.736;2024-03-02T08:39:21;99690.00;;;12.10
37536;BMP180;23379;51.554;6.736;2024-03-02T08:41:47;99713.00;;;13.50
37536;BMP180;23379;51.554;6.736;2024-03-02T08:44:13;99694.00;;;14.90
37536;BMP180;23379;51.554;6.736;2024-03-02T08:46:39;99692.00;;;15.30
37536;BMP180;23379;51.554;6.736;2024-03-02T08:49:05;99694.00;;;15.70
37536;BMP180;23379;51.554;6.736;2024-03-02T08:51:30;99698.00;;;16.20
37536;BMP180;23379;51.554;6.736;2024-03-02T08:53:57;99700.00;;;16.30
37536;BMP180;23379;51.554;6.736;2024-03-02T08:56:23;99693.00;;;16.30
37536;BMP180;23379;51.554;6.736;2024-03-02T08:58:49;99706.00;;;15.80
37536;BMP180;23379;51.554;6.736;2024-03-02T09:01:15;99716.00;;;15.10
37536;BMP180;23379;51.554;6.736;2024-03-02T09:03:41;99706.00;;;15.20
37536;BMP180;23379;51.554;6.736;2024-03-02T09:06:10;99701.00;;;16.10
37536;BMP180;23379;51.554;6.736;2024-03-02T09:08:35;99678.00;;;16.40
37536;BMP180;23379;51.554;6.736;2024-03-02T09:11:05;99716.00;;;16.10
37536;BMP180;23379;51.554;6.736;2024-03-02T09:13:31;99722.00;;;16.60
37536;BMP180;23379;51.554;6.736;2024-03-02T09:15:57;99704.00;;;15.50
37536;BMP180;23379;51.554;6.736;2024-03-02T09:18:22;99712.00;;;15.90
37536;BMP180;23379;51.554;6.736;2024-03-02T09:20:48;99684.00;;;15.90
37536;BMP180;23379;51.554;6.736;2024-03-02T09:23:13;99710.00;;;15.70
37536;BMP180;23379;51.554;6.736;2024-03-02T09:25:39;99690.00;;;15.90
37536;BMP180;23379;51.554;6.736;2024-03-02T09:28:04;99711.00;;;15.50
37536;BMP180;23379;51.554;6.736;2024-03-02T09:30:30;99706.00;;;16.00
37536;BMP180;23379;51.554;6.736;2024-03-02T09:32:55;99699.00;;;16.50
37536;BMP180;23379;51.554;6.736;2024-03-02T09:35:21;99718.00;;;16.80
37536;BMP180;23379;51.554;6.736;2024-03-02T09:37:46;99706.00;;;16.30
37536;BMP180;23379;51.554;6.736;2024-03-02T09:40:13;99736.00;;;16.70
37536;BMP180;23379;51.554;6.736;2024-03-02T09:42:39;99687.00;;;17.10
37536;BMP180;23379;51.554;6.736;2024-03-02T09:45:06;99709.00;;;17.00
37536;BMP180;23379;51.554;6.736;2024-03-02T09:47:31;99712.00;;;17.80
37536;BMP180;23379;51.554;6.736;2024-03-02T09:49:57;99686.00;;;17.10
37536;BMP180;23379;51.554;6.736;2024-03-02T09:52:23;99719.00;;;17.60
37536;BMP180;23379;51.554;6.736;2024-03-02T09:54:48;99722.00;;;18.70
37536;BMP180;23379;51.554;6.736;2024-03-02T09:57:15;99704.00;;;18.80
37536;BMP180;23379;51.554;6.736;2024-03-02T09:59:40;99704.00;;;20.00
37536;BMP180;23379;51.554;6.736;2024-03-02T10:02:05;99701.00;;;19.30
37536;BMP180;23379;51.554;6.736;2024-03-02T10:04:32;99686.00;;;19.50
37536;BMP180;23379;51.554;6.736;2024-03-02T10:09:39;99714.00;;;19.30
37536;BMP180;23379;51.554;6.736;2024-03-02T10:12:06;99695.00;;;18.90
37536;BMP180;23379;51.554;6.736;2024-03-02T10:14:32;99706.00;;;19.50
37536;BMP180;23379;51.554;6.736;2024-03-02T10:17:08;99724.00;;;17.40
37536;BMP180;23379;51.554;6.736;2024-03-02T10:19:34;99701.00;;;17.10
37536;BMP180;23379;51.554;6.736;2024-03-02T10:22:08;99707.00;;;15.80
37536;BMP180;23379;51.554;6.736;2024-03-02T10:24:44;99697.00;;;16.90
37536;BMP180;23379;51.554;6.736;2024-03-02T10:27:18;99702.00;;;17.40
37536;BMP180;23379;51.554;6.736;2024-03-02T10:29:48;99710.00;;;17.10
37536;BMP180;23379;51.554;6.736;2024-03-02T10:32:13;99709.00;;;17.80
37536;BMP180;23379;51.554;6.736;2024-03-02T10:34:44;99696.00;;;15.70
37536;BMP180;23379;51.554;6.736;2024-03-02T10:37:10;99711.00;;;15.30
37536;BMP180;23379;51.554;6.736;2024-03-02T10:39:36;99705.00;;;14.80
37536;BMP180;23379;51.554;6.736;2024-03-02T10:42:05;99719.00;;;15.90
37536;BMP180;23379;51.554;6.736;2024-03-02T10:44:32;99692.00;;;16.10
37536;BMP180;23379;51.554;6.736;2024-03-02T10:47:03;99711.00;;;15.70
37536;BMP180;23379;51.554;6.736;2024-03-02T10:49:30;99697.00;;;15.80
37536;BMP180;23379;51.554;6.736;2024-03-02T10:51:58;99692.00;;;17.30
37536;BMP180;23379;51.554;6.736;2024-03-02T10:54:23;99683.00;;;18.70
37536;BMP180;23379;51.554;6.736;2024-03-02T10:56:52;99696.00;;;17.00
37536;BMP180;23379;51.554;6.736;2024-03-02T10:59:23;99697.00;;;17.30
37536;BMP180;23379;51.554;6.736;2024-03-02T11:01:50;99671.00;;;17.90
37536;BMP180;23379;51.554;6.736;2024-03-02T11:04:19;99681.00;;;18.50
37536;BMP180;23379;51.554;6.736;2024-03-02T11:06:49;99688.00;;;19.30
37536;BMP180;23379;51.554;6.736;2024-03-02T11:09:16;99678.00;;;19.40
37536;BMP180;23379;51.554;6.736;2024-03-02T11:11:44;99667.00;;;17.50
37536;BMP180;23379;51.554;6.736;2024-03-02T11:14:13;99692.00;;;17.00
37536;BMP180;23379;51.554;6.736;2024-03-02T11:16:39;99686.00;;;16.90
37536;BMP180;23379;51.554;6.736;2024-03-02T11:19:09;99673.00;;;18.00
37536;BMP180;23379;51.554;6.736;2024-03-02T11:21:35;99669.00;;;18.50
37536;BMP180;23379;51.554;6.736;2024-03-02T11:27:03;99684.00;;;18.30
37536;BMP180;23379;51.554;6.736;2024-03-02T11:32:12;99660.00;;;17.90
37536;BMP180;23379;51.554;6.736;2024-03-02T11:34:41;99672.00;;;18.10
37536;BMP180;23379;51.554;6.736;2024-03-02T11:37:10;99660.00;;;18.50
37536;BMP180;23379;51.554;6.736;2024-03-02T11:39:37;99660.00;;;18.60
37536;BMP180;23379;51.554;6.736;2024-03-02T11:42:05;99659.00;;;19.30
37536;BMP180;23379;51.554;6.736;2024-03-02T11:44:33;99660.00;;;18.50
37536;BMP180;23379;51.554;6.736;2024-03-02T11:47:01;99650.00;;;18.60
37536;BMP180;23379;51.554;6.736;2024-03-02T11:49:40;99670.00;;;18.70
37536;BMP180;23379;51.554;6.736;2024-03-02T11:52:08;99656.00;;;17.40
37536;BMP180;23379;51.554;6.736;2024-03-02T11:54:35;99629.00;;;17.40
37536;BMP180;23379;51.554;6.736;2024-03-02T11:57:02;99660.00;;;17.60
37536;BMP180;23379;51.554;6.736;2024-03-02T11:59:29;99666.00;;;18.70
37536;BMP180;23379;51.554;6.736;2024-03-02T12:01:54;99662.00;;;19.40
37536;BMP180;23379;51.554;6.736;2024-03-02T12:04:21;99660.00;;;19.30
37536;BMP180;23379;51.554;6.736;2024-03-02T12:06:58;99656.00;;;18.10
37536;BMP180;23379;51.554;6.736;2024-03-02T12:09:27;99653.00;;;18.30
37536;BMP180;23379;51.554;6.736;2024-03-02T12:14:29;99641.00;;;17.90
37536;BMP180;23379;51.554;6.736;2024-03-02T12:16:54;99639.00;;;18.50
37536;BMP180;23379;51.554;6.736;2024-03-02T12:19:21;99630.00;;;17.60
37536;BMP180;23379;51.554;6.736;2024-03-02T12:21:46;99624.00;;;17.30
37536;BMP180;23379;51.554;6.736;2024-03-02T12:24:11;99642.00;;;17.50
37536;BMP180;23379;51.554;6.736;2024-03-02T12:26:37;99632.00;;;17.30
37536;BMP180;23379;51.554;6.736;2024-03-02T12:29:02;99639.00;;;17.50
37536;BMP180;23379;51.554;6.736;2024-03-02T12:31:28;99636.00;;;17.40
37536;BMP180;23379;51.554;6.736;2024-03-02T12:33:54;99595.00;;;16.00
37536;BMP180;23379;51.554;6.736;2024-03-02T12:36:19;99602.00;;;17.00
37536;BMP180;23379;51.554;6.736;2024-03-02T12:38:45;99639.00;;;16.80
37536;BMP180;23379;51.554;6.736;2024-03-02T12:41:14;99624.00;;;17.20
37536;BMP180;23379;51.554;6.736;2024-03-02T12:43:40;99636.00;;;17.50
37536;BMP180;23379;51.554;6.736;2024-03-02T12:46:05;99625.00;;;17.30
37536;BMP180;23379;51.554;6.736;2024-03-02T12:48:31;99604.00;;;16.30
37536;BMP180;23379;51.554;6.736;2024-03-02T12:50:56;99599.00;;;15.70
37536;BMP180;23379;51.554;6.736;2024-03-02T12:53:22;99591.00;;;15.00
37536;BMP180;23379;51.554;6.736;2024-03-02T12:55:48;99586.00;;;15.70
37536;BMP180;23379;51.554;6.736;2024-03-02T12:58:22;99592.00;;;15.70
37536;BMP180;23379;51.554;6.736;2024-03-02T13:00:47;99588.00;;;15.70
37536;BMP180;23379;51.554;6.736;2024-03-02T13:03:13;99590.00;;;15.60
37536;BMP180;23379;51.554;6.736;2024-03-02T13:05:39;99604.00;;;15.50
37536;BMP180;23379;51.554;6.736;2024-03-02T13:08:05;99598.00;;;15.10
37536;BMP180;23379;51.554;6.736;2024-03-02T13:10:32;99596.00;;;14.80
37536;BMP180;23379;51.554;6.736;2024-03-02T13:12:58;99600.00;;;15.00
37536;BMP180;23379;51.554;6.736;2024-03-02T13:15:26;99591.00;;;14.80
37536;BMP180;23379;51.554;6.736;2024-03-02T13:17:52;99582.00;;;15.20
37536;BMP180;23379;51.554;6.736;2024-03-02T13:20:17;99579.00;;;15.40
37536;BMP180;23379;51.554;6.736;2024-03-02T13:22:44;99589.00;;;14.80
37536;BMP180;23379;51.554;6.736;2024-03-02T13:25:09;99587.00;;;14.70
37536;BMP180;23379;51.554;6.736;2024-03-02T13:27:36;99569.00;;;14.60
37536;BMP180;23379;51.554;6.736;2024-03-02T13:30:02;99581.00;;;14.80
37536;BMP180;23379;51.554;6.736;2024-03-02T13:32:28;99568.00;;;15.00
37536;BMP180;23379;51.554;6.736;2024-03-02T13:34:53;99557.00;;;15.20
37536;BMP180;23379;51.554;6.736;2024-03-02T13:37:20;99584.00;;;15.30
37536;BMP180;23379;51.554;6.736;2024-03-02T13:39:45;99555.00;;;15.00
37536;BMP180;23379;51.554;6.736;2024-03-02T13:42:11;99567.00;;;15.10
37536;BMP180;23379;51.554;6.736;2024-03-02T13:44:39;99573.00;;;14.60
37536;BMP180;23379;51.554;6.736;2024-03-02T13:47:05;99575.00;;;15.00
37536;BMP180;23379;51.554;6.736;2024-03-02T13:49:31;99575.00;;;14.90
37536;BMP180;23379;51.554;6.736;2024-03-02T13:52:02;99556.00;;;14.80
37536;BMP180;23379;51.554;6.736;2024-03-02T13:54:29;99579.00;;;14.60
37536;BMP180;23379;51.554;6.736;2024-03-02T13:56:56;99565.00;;;14.80
37536;BMP180;23379;51.554;6.736;2024-03-02T13:59:24;99566.00;;;14.70
37536;BMP180;23379;51.554;6.736;2024-03-02T14:01:50;99551.00;;;14.40
37536;BMP180;23379;51.554;6.736;2024-03-02T14:04:15;99546.00;;;14.30
37536;BMP180;23379;51.554;6.736;2024-03-02T14:06:42;99556.00;;;14.40
37536;BMP180;23379;51.554;6.736;2024-03-02T14:09:08;99567.00;;;14.40
37536;BMP180;23379;51.554;6.736;2024-03-02T14:11:34;99560.00;;;14.50
37536;BMP180;23379;51.554;6.736;2024-03-02T14:13:59;99544.00;;;14.30
37536;BMP180;23379;51.554;6.736;2024-03-02T14:16:25;99555.00;;;14.30
37536;BMP180;23379;51.554;6.736;2024-03-02T14:18:50;99548.00;;;14.70
37536;BMP180;23379;51.554;6.736;2024-03-02T14:21:15;99539.00;;;14.60
37536;BMP180;23379;51.554;6.736;2024-03-02T14:23:41;99551.00;;;14.50
37536;BMP180;23379;51.554;6.736;2024-03-02T14:26:06;99542.00;;;14.30